createdAt,value
2023-01-05T00:01:07.538Z,94.00
2023-01-05T00:03:35.664Z,94.00
2023-01-05T00:06:04.051Z,94.00
2023-01-05T00:08:36.549Z,93.90
2023-01-05T00:11:28.756Z,93.90
2023-01-05T00:14:13.996Z,93.90
2023-01-05T00:16:59.176Z,93.90
2023-01-05T00:19:44.676Z,93.90
2023-01-05T00:22:32.349Z,93.60
2023-01-05T00:25:07.384Z,93.60
2023-01-05T00:27:38.429Z,93.70
2023-01-05T00:30:06.096Z,93.70
2023-01-05T00:32:32.827Z,93.70
2023-01-05T00:34:59.769Z,93.60
2023-01-05T00:37:30.429Z,93.70
2023-01-05T00:39:57.201Z,93.50
2023-01-05T00:42:24.131Z,93.50
2023-01-05T00:44:50.830Z,93.40
2023-01-05T00:47:17.540Z,93.40
2023-01-05T00:49:44.183Z,93.50
2023-01-05T00:52:10.828Z,93.50
2023-01-05T00:54:37.525Z,93.60
2023-01-05T00:57:06.035Z,93.50
2023-01-05T00:59:32.924Z,93.40
2023-01-05T01:01:59.784Z,93.30
2023-01-05T01:04:26.529Z,93.40
2023-01-05T01:06:54.550Z,93.40
2023-01-05T01:09:21.499Z,93.40
2023-01-05T01:11:48.279Z,93.30
2023-01-05T01:14:15.118Z,93.30
2023-01-05T01:16:42.706Z,93.40
2023-01-05T01:19:17.828Z,93.30
2023-01-05T01:21:45.297Z,93.40
2023-01-05T01:24:23.648Z,93.40
2023-01-05T01:26:54.705Z,93.40
2023-01-05T01:29:23.047Z,93.40
2023-01-05T01:31:51.829Z,93.40
2023-01-05T01:34:18.854Z,93.40
2023-01-05T01:36:46.197Z,93.40
2023-01-05T01:39:13.389Z,93.40
2023-01-05T01:41:40.065Z,93.50
2023-01-05T01:44:59.250Z,93.50
2023-01-05T01:47:33.380Z,93.50
2023-01-05T01:50:08.261Z,93.50
2023-01-05T01:52:35.819Z,93.50
2023-01-05T01:55:05.333Z,93.60
2023-01-05T01:57:32.805Z,93.50
2023-01-05T02:00:01.716Z,93.60
2023-01-05T02:02:29.479Z,93.60
2023-01-05T02:05:02.961Z,93.60
2023-01-05T02:07:33.833Z,93.70
2023-01-05T02:10:02.648Z,93.60
2023-01-05T02:12:38.207Z,93.60
2023-01-05T02:15:42.469Z,93.60
2023-01-05T02:18:09.150Z,93.60
2023-01-05T02:21:02.056Z,93.60
2023-01-05T02:24:17.787Z,93.60
2023-01-05T02:27:05.321Z,93.70
2023-01-05T02:29:47.072Z,93.70
2023-01-05T02:32:32.054Z,93.70
2023-01-05T02:35:20.220Z,93.60
2023-01-05T02:38:01.713Z,93.70
2023-01-05T02:40:34.276Z,93.70
2023-01-05T02:43:05.164Z,93.70
2023-01-05T02:45:31.891Z,93.70
2023-01-05T02:47:58.602Z,93.70
2023-01-05T02:50:31.030Z,93.80
2023-01-05T02:53:03.752Z,93.80
2023-01-05T02:55:38.502Z,93.80
2023-01-05T02:58:12.988Z,93.80
2023-01-05T03:00:47.452Z,93.80
2023-01-05T03:03:29.424Z,93.80
2023-01-05T03:06:06.418Z,93.90
2023-01-05T03:08:38.967Z,93.90
2023-01-05T03:11:28.892Z,93.90
2023-01-05T03:14:22.068Z,93.90
2023-01-05T03:16:50.938Z,94.00
2023-01-05T03:19:38.778Z,93.90
2023-01-05T03:22:51.503Z,94.00
2023-01-05T03:25:40.372Z,94.00
2023-01-05T03:28:31.367Z,93.90
2023-01-05T03:31:29.026Z,94.00
2023-01-05T03:34:25.791Z,94.00
2023-01-05T03:37:06.757Z,94.00
2023-01-05T03:39:36.514Z,94.00
2023-01-05T03:42:03.237Z,94.00
2023-01-05T03:44:30.035Z,94.00
2023-01-05T03:46:57.160Z,94.00
2023-01-05T03:49:23.777Z,94.00
2023-01-05T03:51:50.483Z,94.00
2023-01-05T03:54:17.154Z,94.00
2023-01-05T03:56:45.851Z,94.00
2023-01-05T03:59:12.537Z,93.90
2023-01-05T04:01:39.275Z,93.90
2023-01-05T04:04:06.073Z,93.90
2023-01-05T04:06:32.913Z,93.90
2023-01-05T04:08:59.539Z,93.90
2023-01-05T04:11:26.259Z,93.90
2023-01-05T04:13:53.173Z,93.90
2023-01-05T04:16:20.114Z,93.90
2023-01-05T04:18:46.825Z,93.90
2023-01-05T04:21:13.652Z,93.90
2023-01-05T04:23:40.384Z,93.80
2023-01-05T04:26:07.384Z,93.90
2023-01-05T04:28:34.124Z,93.90
2023-01-05T04:31:00.918Z,93.90
2023-01-05T04:33:27.651Z,94.00
2023-01-05T04:35:54.501Z,93.90
2023-01-05T04:38:21.159Z,93.90
2023-01-05T04:40:49.309Z,93.90
2023-01-05T04:43:16.156Z,93.90
2023-01-05T04:45:42.787Z,93.90
2023-01-05T04:48:09.426Z,93.90
2023-01-05T04:50:36.079Z,93.90
2023-01-05T04:53:02.874Z,94.00
2023-01-05T04:55:29.534Z,94.00
2023-01-05T04:57:56.518Z,94.10
2023-01-05T05:00:23.190Z,94.10
2023-01-05T05:02:50.638Z,94.10
2023-01-05T05:05:17.376Z,94.10
2023-01-05T05:07:44.000Z,94.20
2023-01-05T05:10:10.791Z,94.30
2023-01-05T05:12:37.408Z,94.40
2023-01-05T05:15:04.493Z,94.50
2023-01-05T05:17:31.211Z,94.50
2023-01-05T05:19:57.882Z,94.50
2023-01-05T05:22:24.948Z,94.40
2023-01-05T05:24:51.579Z,94.50
2023-01-05T05:27:18.278Z,94.90
2023-01-05T05:29:45.010Z,94.50
2023-01-05T05:32:11.746Z,94.60
2023-01-05T05:34:38.463Z,94.60
2023-01-05T05:37:05.399Z,94.80
2023-01-05T05:39:32.024Z,94.70
2023-01-05T05:41:58.692Z,94.70
2023-01-05T05:44:25.409Z,94.80
2023-01-05T05:46:52.060Z,94.90
2023-01-05T05:49:18.757Z,94.90
2023-01-05T05:51:45.452Z,95.00
2023-01-05T05:54:12.137Z,95.00
2023-01-05T05:56:38.765Z,95.00
2023-01-05T05:59:05.409Z,94.90
2023-01-05T06:01:32.112Z,95.00
2023-01-05T06:03:59.023Z,95.10
2023-01-05T06:06:25.981Z,95.20
2023-01-05T06:08:52.759Z,95.10
2023-01-05T06:11:19.377Z,95.10
2023-01-05T06:13:48.685Z,95.10
2023-01-05T06:16:15.868Z,95.10
2023-01-05T06:18:42.512Z,95.10
2023-01-05T06:21:09.189Z,95.20
2023-01-05T06:23:35.873Z,95.20
2023-01-05T06:26:02.545Z,95.30
2023-01-05T06:28:29.231Z,95.20
2023-01-05T06:30:55.868Z,95.30
2023-01-05T06:33:22.545Z,95.30
2023-01-05T06:35:49.168Z,95.40
2023-01-05T06:38:16.499Z,95.30
2023-01-05T06:40:46.120Z,95.70
2023-01-05T06:43:13.161Z,95.40
2023-01-05T06:45:39.878Z,95.30
2023-01-05T06:48:06.812Z,95.30
2023-01-05T06:50:34.183Z,95.40
2023-01-05T06:53:01.343Z,95.30
2023-01-05T06:55:28.033Z,95.30
2023-01-05T06:58:00.452Z,95.30
2023-01-05T07:00:27.335Z,95.30
2023-01-05T07:02:53.956Z,95.30
2023-01-05T07:05:20.805Z,95.70
2023-01-05T07:07:47.535Z,95.40
2023-01-05T07:10:15.038Z,95.40
2023-01-05T07:12:41.718Z,95.50
2023-01-05T07:15:09.356Z,95.40
2023-01-05T07:17:38.894Z,95.30
2023-01-05T07:20:07.137Z,95.50
2023-01-05T07:22:33.810Z,95.40
2023-01-05T07:25:00.524Z,95.40
2023-01-05T07:27:27.452Z,95.60
2023-01-05T07:29:54.176Z,95.60
2023-01-05T07:32:20.814Z,95.50
2023-01-05T07:34:54.939Z,95.60
2023-01-05T07:37:24.545Z,95.50
2023-01-05T07:39:51.294Z,95.50
2023-01-05T07:42:17.939Z,95.60
2023-01-05T07:44:45.284Z,95.50
2023-01-05T07:47:12.823Z,95.60
2023-01-05T07:49:39.437Z,95.60
2023-01-05T07:52:06.105Z,95.50
2023-01-05T07:54:32.766Z,95.60
2023-01-05T07:56:59.440Z,95.60
2023-01-05T07:59:26.120Z,95.60
2023-01-05T08:01:52.827Z,95.60
2023-01-05T08:04:19.546Z,95.60
2023-01-05T08:06:46.278Z,95.60
2023-01-05T08:09:31.418Z,95.60
2023-01-05T08:11:58.095Z,95.60
2023-01-05T08:14:24.776Z,95.70
2023-01-05T08:16:51.505Z,95.60
2023-01-05T08:19:19.626Z,95.60
2023-01-05T08:21:46.373Z,96.00
2023-01-05T08:24:13.230Z,95.60
2023-01-05T08:26:39.984Z,95.60
2023-01-05T08:29:06.697Z,95.70
2023-01-05T08:31:37.435Z,95.60
2023-01-05T08:34:05.317Z,95.60
2023-01-05T08:36:32.915Z,95.60
2023-01-05T08:39:01.591Z,95.60
2023-01-05T08:41:31.922Z,95.70
2023-01-05T08:44:02.571Z,95.60
2023-01-05T08:46:32.796Z,95.70
2023-01-05T08:49:01.813Z,95.80
2023-01-05T08:51:29.351Z,95.70
2023-01-05T08:53:56.409Z,95.80
2023-01-05T08:56:25.167Z,95.80
2023-01-05T08:58:52.923Z,95.80
2023-01-05T09:01:22.133Z,95.90
2023-01-05T09:03:49.304Z,95.90
2023-01-05T09:06:16.303Z,95.80
2023-01-05T09:08:44.288Z,95.80
2023-01-05T09:11:13.673Z,95.80
2023-01-05T09:13:41.659Z,95.90
2023-01-05T09:16:10.804Z,95.90
2023-01-05T09:18:39.047Z,95.90
2023-01-05T09:21:06.355Z,95.90
2023-01-05T09:23:34.127Z,96.00
2023-01-05T09:26:03.401Z,95.90
2023-01-05T09:28:30.085Z,96.00
2023-01-05T09:30:57.038Z,95.90
2023-01-05T09:33:24.942Z,96.30
2023-01-05T09:35:57.728Z,96.10
2023-01-05T09:38:24.467Z,96.10
2023-01-05T09:40:54.820Z,96.10
2023-01-05T09:43:31.538Z,96.00
2023-01-05T09:45:59.495Z,96.20
2023-01-05T09:48:26.718Z,96.10
2023-01-05T09:50:53.860Z,96.20
2023-01-05T09:53:29.803Z,96.20
2023-01-05T09:55:57.732Z,96.30
2023-01-05T09:58:30.169Z,96.30
2023-01-05T10:01:13.466Z,96.40
2023-01-05T10:04:05.041Z,96.30
2023-01-05T10:06:38.068Z,96.30
2023-01-05T10:09:10.165Z,96.30
2023-01-05T10:12:23.594Z,96.40
2023-01-05T10:15:00.937Z,96.70
2023-01-05T10:17:41.934Z,96.20
2023-01-05T10:20:21.916Z,96.30
2023-01-05T10:23:12.710Z,96.30
2023-01-05T10:25:48.596Z,96.40
2023-01-05T10:28:41.688Z,96.40
2023-01-05T10:31:31.593Z,96.30
2023-01-05T10:34:07.132Z,96.30
2023-01-05T10:37:10.450Z,96.30
2023-01-05T10:39:55.780Z,96.40
2023-01-05T10:43:03.025Z,96.30
2023-01-05T10:45:31.355Z,96.90
2023-01-05T10:47:59.428Z,96.50
2023-01-05T10:50:36.483Z,96.60
2023-01-05T10:53:12.964Z,96.50
2023-01-05T10:55:49.976Z,96.50
2023-01-05T10:58:56.431Z,96.40
2023-01-05T11:01:29.596Z,96.40
2023-01-05T11:04:26.986Z,96.50
2023-01-05T11:06:52.272Z,96.40
2023-01-05T11:09:26.718Z,96.50
2023-01-05T11:12:04.936Z,96.30
2023-01-05T11:14:43.126Z,96.30
2023-01-05T11:17:19.585Z,96.30
2023-01-05T11:19:49.927Z,96.20
2023-01-05T11:22:34.881Z,96.30
2023-01-05T11:25:14.934Z,96.30
2023-01-05T11:27:41.627Z,96.30
2023-01-05T11:30:20.224Z,96.30
2023-01-05T11:32:47.622Z,96.00
2023-01-05T11:35:25.195Z,96.10
2023-01-05T11:37:51.942Z,96.10
2023-01-05T11:40:21.088Z,96.00
2023-01-05T11:42:47.807Z,96.00
2023-01-05T11:45:21.450Z,95.90
2023-01-05T11:47:58.679Z,95.80
2023-01-05T11:50:43.840Z,95.80
2023-01-05T11:53:36.729Z,95.80
2023-01-05T11:56:08.335Z,95.70
2023-01-05T11:58:43.925Z,95.70
2023-01-05T12:01:49.408Z,95.70
2023-01-05T12:04:44.592Z,95.70
2023-01-05T12:07:29.970Z,95.70
2023-01-05T12:10:20.590Z,95.60
2023-01-05T12:13:11.805Z,95.70
2023-01-05T12:15:57.327Z,95.60
2023-01-05T12:19:06.267Z,95.60
2023-01-05T12:22:02.377Z,95.60
2023-01-05T12:24:55.887Z,95.60
2023-01-05T12:27:47.523Z,95.70
2023-01-05T12:36:22.740Z,95.40
2023-01-05T12:39:01.182Z,95.30
2023-01-05T12:41:45.981Z,95.30
2023-01-05T12:44:31.689Z,95.40
2023-01-05T12:47:19.346Z,95.20
2023-01-05T12:49:48.911Z,95.10
2023-01-05T12:52:36.482Z,95.10
2023-01-05T12:55:15.901Z,95.10
2023-01-05T12:57:54.236Z,95.00
2023-01-05T13:00:22.007Z,94.90
2023-01-05T13:02:55.737Z,95.00
2023-01-05T13:05:32.406Z,95.00
2023-01-05T13:08:20.516Z,94.90
2023-01-05T13:10:59.751Z,95.10
2023-01-05T13:13:36.300Z,95.20
2023-01-05T13:16:13.176Z,95.20
2023-01-05T13:18:45.837Z,95.10
2023-01-05T13:21:15.283Z,95.00
2023-01-05T13:23:50.425Z,94.90
2023-01-05T13:26:19.564Z,94.90
2023-01-05T13:28:48.511Z,94.70
2023-01-05T13:31:57.026Z,94.70
2023-01-05T13:35:00.825Z,94.60
2023-01-05T13:38:02.952Z,94.60
2023-01-05T13:41:04.818Z,94.60
2023-01-05T13:43:53.740Z,94.60
2023-01-05T13:46:36.837Z,94.60
2023-01-05T13:49:32.759Z,94.50
2023-01-05T13:52:36.065Z,94.60
2023-01-05T13:55:05.014Z,94.40
2023-01-05T13:57:42.369Z,94.50
2023-01-05T14:00:22.951Z,94.60
2023-01-05T14:03:07.994Z,93.80
2023-01-05T14:05:54.826Z,93.80
2023-01-05T14:08:34.519Z,93.50
2023-01-05T14:11:13.815Z,93.40
2023-01-05T14:13:58.431Z,93.30
2023-01-05T14:16:34.675Z,93.40
2023-01-05T14:19:18.850Z,93.40
2023-01-05T14:21:53.890Z,93.30
2023-01-05T14:24:47.573Z,93.10
2023-01-05T14:27:21.558Z,92.30
2023-01-05T14:32:26.080Z,92.60
2023-01-05T14:34:59.841Z,92.70
2023-01-05T14:37:29.285Z,92.40
2023-01-05T14:40:04.103Z,92.30
2023-01-05T14:42:40.895Z,92.40
2023-01-05T14:45:21.252Z,92.00
2023-01-05T14:47:55.191Z,92.00
2023-01-05T14:50:34.917Z,92.30
2023-01-05T14:53:14.419Z,92.40
2023-01-05T14:56:01.025Z,92.10
2023-01-05T14:58:36.674Z,91.90
2023-01-05T15:01:18.824Z,92.10
2023-01-05T15:03:57.573Z,92.20
2023-01-05T15:06:55.582Z,92.20
2023-01-05T15:09:52.075Z,92.20
2023-01-05T15:12:27.328Z,92.30
2023-01-05T15:15:03.784Z,92.30
2023-01-05T15:18:05.688Z,92.10
2023-01-05T15:21:26.516Z,92.20
2023-01-05T15:24:20.685Z,92.20
2023-01-05T15:27:02.955Z,92.30
2023-01-05T15:29:38.167Z,92.40
2023-01-05T15:32:23.759Z,92.40
2023-01-05T15:35:08.301Z,92.50
2023-01-05T15:37:40.934Z,92.50
2023-01-05T15:40:27.594Z,92.50
2023-01-05T15:42:58.862Z,92.50
2023-01-05T15:45:32.286Z,92.60
2023-01-05T15:48:09.503Z,92.60
2023-01-05T15:50:49.703Z,92.90
2023-01-05T15:53:41.031Z,92.60
2023-01-05T15:56:30.157Z,92.60
2023-01-05T15:58:57.055Z,92.60
2023-01-05T16:01:23.805Z,92.60
2023-01-05T16:03:51.030Z,92.60
2023-01-05T16:06:21.945Z,92.90
2023-01-05T16:08:52.160Z,93.00
2023-01-05T16:11:27.050Z,93.00
2023-01-05T16:14:11.939Z,93.00
2023-01-05T16:16:53.241Z,92.90
2023-01-05T16:19:25.880Z,92.90
2023-01-05T16:22:12.410Z,92.90
2023-01-05T16:25:01.266Z,93.00
2023-01-05T16:27:28.855Z,92.90
2023-01-05T16:29:55.570Z,92.90
2023-01-05T16:32:37.162Z,92.90
2023-01-05T16:35:43.068Z,92.90
2023-01-05T16:38:09.798Z,92.90
2023-01-05T16:40:54.878Z,92.90
2023-01-05T16:43:44.629Z,92.90
2023-01-05T16:46:20.199Z,93.00
2023-01-05T16:49:04.330Z,92.90
2023-01-05T16:51:35.752Z,93.00
2023-01-05T16:54:20.782Z,93.00
2023-01-05T16:56:57.874Z,93.00
2023-01-05T16:59:50.094Z,93.00
2023-01-05T17:02:37.045Z,93.00
2023-01-05T17:05:06.584Z,93.00
2023-01-05T17:07:34.738Z,93.00
2023-01-05T17:10:03.442Z,93.00
2023-01-05T17:12:30.077Z,93.10
2023-01-05T17:15:00.982Z,93.10
2023-01-05T17:17:28.002Z,93.10
2023-01-05T17:19:54.729Z,93.10
2023-01-05T17:22:21.405Z,93.10
2023-01-05T17:24:48.338Z,93.20
2023-01-05T17:27:15.538Z,93.20
2023-01-05T17:29:42.518Z,93.20
2023-01-05T17:32:11.130Z,93.20
2023-01-05T17:34:39.654Z,93.20
2023-01-05T17:37:07.586Z,93.20
2023-01-05T17:39:34.403Z,93.30
2023-01-05T17:42:22.737Z,93.20
2023-01-05T17:44:51.739Z,93.30
2023-01-05T17:47:18.448Z,93.30
2023-01-05T17:49:45.107Z,93.30
2023-01-05T17:52:12.742Z,93.30
2023-01-05T17:54:41.707Z,93.40
2023-01-05T17:57:11.892Z,93.40
2023-01-05T17:59:38.622Z,93.40
2023-01-05T18:02:05.349Z,93.40
2023-01-05T18:04:31.992Z,93.40
2023-01-05T18:06:59.540Z,93.40
2023-01-05T18:09:26.454Z,93.50
2023-01-05T18:11:53.150Z,93.50
2023-01-05T18:14:19.826Z,93.50
2023-01-05T18:16:46.658Z,93.60
2023-01-05T18:21:45.863Z,93.80
2023-01-05T18:24:12.612Z,93.70
2023-01-05T18:26:39.288Z,93.90
2023-01-05T18:29:06.086Z,93.90
2023-01-05T18:31:34.841Z,94.00
2023-01-05T18:34:03.780Z,94.00
2023-01-05T18:36:30.513Z,94.00
2023-01-05T18:38:57.292Z,94.00
2023-01-05T18:41:25.297Z,94.00
2023-01-05T18:43:52.050Z,94.10
2023-01-05T18:46:18.849Z,94.10
2023-01-05T18:48:50.501Z,94.20
2023-01-05T18:51:17.546Z,94.20
2023-01-05T18:53:44.353Z,94.30
2023-01-05T18:56:13.488Z,94.40
2023-01-05T18:58:40.478Z,94.50
2023-01-05T19:01:12.398Z,94.60
2023-01-05T19:03:39.161Z,94.60
2023-01-05T19:06:07.918Z,94.40
2023-01-05T19:08:35.004Z,94.50
2023-01-05T19:11:17.749Z,94.40
2023-01-05T19:13:46.388Z,94.30
2023-01-05T19:16:16.719Z,94.40
2023-01-05T19:18:47.897Z,94.30
2023-01-05T19:21:14.639Z,94.40
2023-01-05T19:23:41.456Z,94.70
2023-01-05T19:26:08.391Z,94.40
2023-01-05T19:28:36.598Z,94.40
2023-01-05T19:31:11.007Z,94.30
2023-01-05T19:33:38.111Z,94.30
2023-01-05T19:36:14.072Z,94.40
2023-01-05T19:38:41.234Z,94.30
2023-01-05T19:41:13.629Z,94.40
2023-01-05T19:43:41.189Z,94.40
2023-01-05T19:46:11.257Z,94.40
2023-01-05T19:48:39.468Z,94.40
2023-01-05T19:51:09.460Z,94.30
2023-01-05T19:53:38.472Z,94.50
2023-01-05T19:56:06.940Z,94.50
2023-01-05T19:58:34.273Z,94.30
2023-01-05T20:01:16.010Z,94.40
2023-01-05T20:03:44.531Z,94.50
2023-01-05T20:06:15.417Z,94.30
2023-01-05T20:08:42.525Z,94.30
2023-01-05T20:11:12.268Z,94.50
2023-01-05T20:13:39.737Z,94.40
2023-01-05T20:16:10.246Z,94.40
2023-01-05T20:18:38.315Z,94.30
2023-01-05T20:21:07.418Z,94.30
2023-01-05T20:23:37.618Z,94.30
2023-01-05T20:26:14.422Z,94.30
2023-01-05T20:28:41.883Z,94.50
2023-01-05T20:31:36.618Z,94.50
2023-01-05T20:34:13.690Z,94.60
2023-01-05T20:36:40.765Z,94.40
2023-01-05T20:39:09.886Z,94.50
2023-01-05T20:41:40.036Z,94.50
2023-01-05T20:44:07.256Z,94.50
2023-01-05T20:46:47.142Z,94.70
2023-01-05T20:49:14.857Z,94.60
2023-01-05T20:51:42.152Z,94.70
2023-01-05T20:54:10.203Z,94.70
2023-01-05T20:56:38.968Z,94.60
2023-01-05T20:59:20.781Z,94.80
2023-01-05T21:01:47.631Z,94.80
2023-01-05T21:04:14.942Z,94.90
2023-01-05T21:06:42.323Z,94.90
2023-01-05T21:09:09.741Z,94.90
2023-01-05T21:11:38.659Z,94.90
2023-01-05T21:14:06.766Z,95.10
2023-01-05T21:16:39.879Z,95.40
2023-01-05T21:19:07.692Z,95.00
2023-01-05T21:21:34.555Z,95.10
2023-01-05T21:24:02.456Z,95.10
2023-01-05T21:26:29.136Z,95.30
2023-01-05T21:28:55.840Z,95.50
2023-01-05T21:31:25.001Z,95.70
2023-01-05T21:33:52.774Z,95.60
2023-01-05T21:36:22.274Z,95.50
2023-01-05T21:39:03.397Z,95.60
2023-01-05T21:41:50.344Z,95.90
2023-01-05T21:44:17.716Z,95.80
2023-01-05T21:46:44.724Z,95.60
2023-01-05T21:49:12.421Z,95.70
2023-01-05T21:51:58.074Z,95.80
2023-01-05T21:54:44.304Z,96.00
2023-01-05T21:57:11.419Z,95.90
2023-01-05T21:59:38.150Z,96.20
2023-01-05T22:02:04.881Z,96.10
2023-01-05T22:04:31.777Z,96.10
2023-01-05T22:06:58.437Z,96.20
2023-01-05T22:09:25.389Z,96.40
2023-01-05T22:11:52.099Z,96.50
2023-01-05T22:14:18.835Z,96.50
2023-01-05T22:16:45.490Z,96.70
2023-01-05T22:19:12.185Z,96.40
2023-01-05T22:21:39.026Z,96.40
2023-01-05T22:24:10.516Z,96.60
2023-01-05T22:26:37.227Z,96.80
2023-01-05T22:29:04.298Z,96.60
2023-01-05T22:31:32.722Z,96.60
2023-01-05T22:34:00.615Z,96.40
2023-01-05T22:36:28.853Z,96.40
2023-01-05T22:38:56.786Z,96.50
2023-01-05T22:41:26.364Z,96.30
2023-01-05T22:43:53.508Z,96.20
2023-01-05T22:46:22.787Z,96.40
2023-01-05T22:48:51.705Z,96.30
2023-01-05T22:51:22.164Z,96.20
2023-01-05T22:53:49.384Z,96.30
2023-01-05T22:56:17.649Z,96.30
2023-01-05T22:58:44.716Z,96.20
2023-01-05T23:01:19.097Z,96.30
2023-01-05T23:03:45.850Z,96.10
2023-01-05T23:06:12.771Z,96.30
2023-01-05T23:08:40.670Z,96.40
2023-01-05T23:11:10.680Z,96.30
2023-01-05T23:13:37.813Z,96.30
2023-01-05T23:16:05.736Z,96.20
2023-01-05T23:18:34.025Z,96.30
2023-01-05T23:21:03.958Z,96.20
2023-01-05T23:23:31.038Z,96.80
2023-01-05T23:25:58.073Z,97.00
2023-01-05T23:28:26.321Z,96.80
2023-01-05T23:30:55.002Z,96.80
2023-01-05T23:33:23.562Z,96.70
2023-01-05T23:35:51.692Z,96.90
2023-01-05T23:38:19.160Z,97.20
2023-01-05T23:40:51.050Z,97.00
2023-01-05T23:43:21.296Z,96.80
2023-01-05T23:45:48.749Z,97.00
2023-01-05T23:48:16.281Z,97.10
2023-01-05T23:50:45.052Z,97.10
2023-01-05T23:53:12.656Z,97.20
2023-01-05T23:55:40.075Z,97.10
2023-01-05T23:58:07.856Z,97.30
